Time;durP1;ratioP1;P1;durP2;ratioP2;P2;SDS_P1;SDS_P2;PMS_P1;PMS_P2;Temp;Humidity;BMP_temperature;BMP_pressure;BME280_temperature;BME280_humidity;BME280_pressure;Samples;Min_cycle;Max_cycle;Signal;HPM_P1;HPM_P2
2022/07/07 00:01:37;;;;;;;11.60;3.53;;;16.40;99.90;;;;;;5072248;28;20501;-25
2022/07/07 00:04:03;;;;;;;6.35;3.50;;;16.30;99.90;;;;;;5073519;28;20045;-24
2022/07/07 00:06:30;;;;;;;5.35;3.50;;;16.30;99.90;;;;;;5076588;28;20482;-25
2022/07/07 00:08:56;;;;;;;11.93;3.67;;;16.30;99.90;;;;;;5077751;28;20097;-25
2022/07/07 00:11:23;;;;;;;5.13;2.42;;;16.30;99.90;;;;;;5077687;28;20054;-25
2022/07/07 00:13:52;;;;;;;7.32;3.15;;;16.30;99.90;;;;;;5075890;28;20135;-25
2022/07/07 00:16:18;;;;;;;7.88;3.28;;;16.30;99.90;;;;;;5077387;28;20056;-24
2022/07/07 00:18:44;;;;;;;8.80;3.47;;;16.30;99.90;;;;;;5077235;28;20091;-25
2022/07/07 00:21:10;;;;;;;9.52;3.53;;;16.30;99.90;;;;;;5077773;28;20055;-24
2022/07/07 00:23:36;;;;;;;7.10;3.40;;;16.30;99.90;;;;;;5077731;28;20040;-24
2022/07/07 00:26:02;;;;;;;9.60;3.40;;;16.30;99.90;;;;;;5076050;28;20091;-23
2022/07/07 00:28:28;;;;;;;14.20;4.40;;;16.20;1.00;;;;;;5076625;28;20170;-27
2022/07/07 00:30:54;;;;;;;8.40;3.88;;;16.00;1.00;;;;;;5077560;28;20127;-29
2022/07/07 00:33:25;;;;;;;16.33;3.90;;;15.80;62.90;;;;;;5076973;28;20040;-26
2022/07/07 00:35:51;;;;;;;11.50;3.65;;;15.60;99.90;;;;;;5076827;28;20049;-26
2022/07/07 00:38:17;;;;;;;12.63;4.43;;;15.50;99.90;;;;;;5077195;28;20043;-26
2022/07/07 00:40:43;;;;;;;10.10;4.20;;;15.50;99.90;;;;;;5076538;28;20553;-26
2022/07/07 00:43:09;;;;;;;9.32;5.32;;;15.40;99.90;;;;;;5076795;28;20051;-25
2022/07/07 00:45:34;;;;;;;11.43;4.78;;;15.30;99.90;;;;;;5076793;28;20052;-26
2022/07/07 00:48:03;;;;;;;11.38;4.97;;;15.40;99.90;;;;;;5076639;28;20474;-26
2022/07/07 00:50:29;;;;;;;14.57;6.30;;;15.30;99.90;;;;;;5076635;28;20097;-27
2022/07/07 00:52:55;;;;;;;11.35;6.38;;;15.30;99.90;;;;;;5075128;28;20052;-29
2022/07/07 00:55:21;;;;;;;13.88;6.70;;;15.40;99.90;;;;;;5076591;28;20083;-27
2022/07/07 00:57:46;;;;;;;12.48;6.15;;;15.30;99.90;;;;;;5075298;28;20041;-29
2022/07/07 01:00:14;;;;;;;15.75;7.70;;;15.30;99.90;;;;;;5077318;28;20049;-28
2022/07/07 01:02:43;;;;;;;16.23;7.35;;;15.30;99.90;;;;;;5076295;28;20056;-28
2022/07/07 01:05:11;;;;;;;14.82;7.80;;;15.30;99.90;;;;;;5076393;28;20083;-28
2022/07/07 01:07:37;;;;;;;19.98;8.02;;;15.30;99.90;;;;;;5075151;28;20048;-31
2022/07/07 01:10:05;;;;;;;15.20;8.27;;;15.30;99.90;;;;;;5076352;28;20051;-31
2022/07/07 01:12:49;;;;;;;19.60;8.05;;;15.30;99.90;;;;;;5076272;28;20045;-34
2022/07/07 01:15:15;;;;;;;17.90;9.95;;;15.30;99.90;;;;;;5074798;28;20072;-32
2022/07/07 01:17:41;;;;;;;17.35;9.40;;;15.20;99.90;;;;;;5075901;28;20056;-34
2022/07/07 01:20:10;;;;;;;12.88;8.38;;;15.30;99.90;;;;;;5058504;28;20044;-33
2022/07/07 01:22:37;;;;;;;21.65;9.85;;;15.30;99.90;;;;;;5076079;28;20048;-41
2022/07/07 01:25:04;;;;;;;17.70;10.80;;;15.20;99.90;;;;;;5076080;28;20091;-39
2022/07/07 01:27:30;;;;;;;16.77;9.80;;;15.30;99.90;;;;;;5075942;28;20537;-38
2022/07/07 01:29:57;;;;;;;25.58;11.38;;;15.30;99.90;;;;;;5075994;28;20131;-34
2022/07/07 01:32:24;;;;;;;19.60;8.70;;;15.30;99.90;;;;;;5076433;28;20051;-35
2022/07/07 01:34:50;;;;;;;16.98;9.48;;;15.30;99.90;;;;;;5074696;28;20041;-33
2022/07/07 01:37:17;;;;;;;24.35;9.52;;;15.30;99.90;;;;;;5075465;28;20072;-33
2022/07/07 01:39:43;;;;;;;24.00;8.98;;;15.30;99.90;;;;;;5075756;28;20046;-33
2022/07/07 01:42:10;;;;;;;18.73;9.00;;;15.30;99.90;;;;;;5074808;28;20047;-32
2022/07/07 01:44:41;;;;;;;18.42;8.68;;;15.30;99.90;;;;;;5058070;28;20131;-34
2022/07/07 01:47:08;;;;;;;23.15;9.07;;;15.30;99.90;;;;;;5074531;28;20040;-32
2022/07/07 01:49:34;;;;;;;18.05;8.48;;;15.30;99.90;;;;;;5074361;28;20044;-33
2022/07/07 01:52:01;;;;;;;19.50;8.30;;;15.40;99.90;;;;;;5075542;28;20044;-33
2022/07/07 01:54:28;;;;;;;28.90;9.27;;;15.30;99.90;;;;;;5075580;28;20052;-32
2022/07/07 01:56:54;;;;;;;27.95;8.63;;;15.50;99.90;;;;;;5076315;28;20116;-46
2022/07/07 01:59:19;;;;;;;16.65;6.65;;;15.50;99.90;;;;;;5076245;28;20052;-42
2022/07/07 02:01:45;;;;;;;17.33;6.72;;;15.40;99.90;;;;;;5075361;28;20482;-42
2022/07/07 02:04:13;;;;;;;20.10;7.68;;;15.40;99.90;;;;;;5074204;28;20044;-43
2022/07/07 02:06:39;;;;;;;21.55;7.10;;;15.40;99.90;;;;;;5073680;28;20505;-44
2022/07/07 02:09:06;;;;;;;16.42;6.28;;;15.50;99.90;;;;;;5073968;28;20052;-42
2022/07/07 02:11:32;;;;;;;17.33;6.35;;;15.40;99.90;;;;;;5075208;28;20049;-41
2022/07/07 02:14:02;;;;;;;14.93;4.40;;;15.40;99.90;;;;;;5074842;28;20055;-40
2022/07/07 02:16:28;;;;;;;14.25;5.35;;;15.30;99.90;;;;;;5074976;28;20060;-40
2022/07/07 02:19:08;;;;;;;14.98;4.13;;;15.30;99.90;;;;;;5073780;28;20049;-39
2022/07/07 02:21:34;;;;;;;16.67;4.57;;;15.40;99.90;;;;;;5074997;28;20048;-35
2022/07/07 02:24:03;;;;;;;16.95;5.03;;;15.20;99.90;;;;;;5075722;28;20119;-38
2022/07/07 02:26:31;;;;;;;12.75;4.00;;;15.20;99.90;;;;;;5074757;28;20497;-37
2022/07/07 02:29:00;;;;;;;15.07;5.20;;;15.30;99.90;;;;;;5040558;28;20433;-37
2022/07/07 02:31:28;;;;;;;14.65;3.70;;;15.30;99.90;;;;;;5075367;28;20048;-38
2022/07/07 02:33:53;;;;;;;21.95;4.30;;;15.30;99.90;;;;;;5074751;28;20041;-38
2022/07/07 02:36:19;;;;;;;14.38;3.92;;;15.30;99.90;;;;;;5057096;28;20135;-39
2022/07/07 02:38:48;;;;;;;9.75;3.30;;;15.30;99.90;;;;;;5073428;28;20051;-37
2022/07/07 02:41:16;;;;;;;12.65;4.03;;;15.30;99.90;;;;;;5075144;28;20089;-35
2022/07/07 02:43:41;;;;;;;15.95;4.00;;;15.20;99.90;;;;;;5074527;28;20048;-35
2022/07/07 02:46:07;;;;;;;15.82;4.10;;;15.30;99.90;;;;;;5074462;28;20101;-33
2022/07/07 02:48:33;;;;;;;14.13;4.13;;;15.20;99.90;;;;;;5074923;28;20125;-35
2022/07/07 02:50:59;;;;;;;12.52;4.38;;;15.30;99.90;;;;;;5074416;28;20050;-38
2022/07/07 02:53:27;;;;;;;17.42;4.68;;;15.30;99.90;;;;;;5074287;28;20494;-34
2022/07/07 02:55:53;;;;;;;13.25;4.50;;;15.30;99.90;;;;;;5073314;28;20055;-34
2022/07/07 02:58:23;;;;;;;18.25;4.72;;;15.30;99.90;;;;;;5072996;28;20045;-39
2022/07/07 03:00:50;;;;;;;19.10;5.47;;;15.30;99.90;;;;;;5074154;28;20056;-43
2022/07/07 03:03:16;;;;;;;22.48;6.15;;;15.30;99.90;;;;;;5074189;28;20091;-44
2022/07/07 03:05:44;;;;;;;13.93;5.07;;;15.10;99.90;;;;;;5056907;28;20040;-42
2022/07/07 03:08:10;;;;;;;20.67;5.32;;;15.30;99.90;;;;;;5056166;28;20393;-43
2022/07/07 03:10:36;;;;;;;25.50;5.85;;;15.30;99.90;;;;;;5074032;28;20045;-43
2022/07/07 03:13:05;;;;;;;16.90;4.70;;;15.30;99.90;;;;;;5074602;28;20132;-44
2022/07/07 03:15:30;;;;;;;13.50;2.92;;;15.30;99.90;;;;;;5072987;28;20118;-42
2022/07/07 03:17:56;;;;;;;14.80;3.25;;;15.10;99.90;;;;;;5073920;28;20479;-42
2022/07/07 03:20:25;;;;;;;17.70;2.85;;;15.10;99.90;;;;;;5073915;28;20041;-42
2022/07/07 03:22:51;;;;;;;15.63;2.30;;;15.00;99.90;;;;;;5073890;28;20052;-42
2022/07/07 03:25:19;;;;;;;17.75;2.30;;;15.00;99.90;;;;;;5073837;28;20037;-42
2022/07/07 03:27:44;;;;;;;19.70;2.92;;;14.90;99.90;;;;;;5074347;28;20128;-43
2022/07/07 03:30:10;;;;;;;14.25;2.28;;;14.90;99.90;;;;;;5072582;28;20051;-43
2022/07/07 03:32:36;;;;;;;10.52;1.85;;;15.00;99.90;;;;;;5056152;28;20052;-43
2022/07/07 03:35:03;;;;;;;17.98;1.58;;;14.90;99.90;;;;;;5074300;28;20048;-42
2022/07/07 03:37:29;;;;;;;9.40;1.65;;;14.90;99.90;;;;;;5073750;28;20129;-42
2022/07/07 03:39:57;;;;;;;13.38;1.77;;;14.90;99.90;;;;;;5073764;28;20062;-42
2022/07/07 03:42:25;;;;;;;12.32;1.95;;;14.90;99.90;;;;;;5073654;28;20044;-42
2022/07/07 03:44:51;;;;;;;9.18;1.92;;;14.80;99.90;;;;;;5073654;28;20080;-43
2022/07/07 03:47:16;;;;;;;14.45;2.38;;;14.70;99.90;;;;;;5073564;28;20076;-43
2022/07/07 03:49:42;;;;;;;12.40;1.80;;;14.80;99.90;;;;;;5056817;28;20044;-43
2022/07/07 03:52:08;;;;;;;12.90;1.98;;;14.80;99.90;;;;;;5073022;28;20363;-48
2022/07/07 03:54:36;;;;;;;13.15;2.10;;;14.80;99.90;;;;;;5056767;28;20052;-42
2022/07/07 03:57:07;;;;;;;11.23;2.30;;;14.70;99.90;;;;;;5074362;28;20372;-44
2022/07/07 03:59:33;;;;;;;12.20;1.85;;;14.70;99.90;;;;;;5072454;28;20083;-43
2022/07/07 04:01:59;;;;;;;14.18;3.13;;;14.60;99.90;;;;;;5072550;28;20049;-42
2022/07/07 04:04:24;;;;;;;18.25;3.00;;;14.60;99.90;;;;;;5073761;28;20135;-43
2022/07/07 04:06:50;;;;;;;11.75;1.98;;;14.60;99.90;;;;;;5073630;28;20044;-43
2022/07/07 04:09:15;;;;;;;14.02;2.00;;;14.50;99.90;;;;;;5073420;28;20402;-43
2022/07/07 04:11:43;;;;;;;7.68;1.50;;;14.60;99.90;;;;;;5072241;28;20041;-42
2022/07/07 04:14:09;;;;;;;16.67;2.13;;;14.60;99.90;;;;;;5073581;28;20052;-45
2022/07/07 04:16:35;;;;;;;16.77;2.45;;;14.60;99.90;;;;;;5073351;28;20048;-46
2022/07/07 04:19:01;;;;;;;13.52;2.55;;;14.60;99.90;;;;;;5072138;28;20044;-43
2022/07/07 04:21:27;;;;;;;9.90;2.05;;;14.60;96.70;;;;;;5073030;28;20040;-43
2022/07/07 04:23:52;;;;;;;7.40;1.52;;;14.70;46.70;;;;;;5056050;28;20048;-43
2022/07/07 04:26:20;;;;;;;10.32;1.67;;;14.70;1.00;;;;;;5072020;28;20088;-43
2022/07/07 04:28:46;;;;;;;9.38;2.15;;;14.70;1.00;;;;;;5072037;28;20139;-43
2022/07/07 04:31:11;;;;;;;10.77;2.08;;;14.80;1.00;;;;;;5073191;28;20140;-43
2022/07/07 04:33:37;;;;;;;8.60;1.20;;;14.80;99.90;;;;;;5073166;28;20051;-45
2022/07/07 04:36:03;;;;;;;11.10;1.40;;;14.80;99.90;;;;;;5073156;28;20051;-43
2022/07/07 04:38:29;;;;;;;12.45;2.00;;;14.80;99.90;;;;;;5073164;28;20048;-43
2022/07/07 04:40:54;;;;;;;7.97;1.98;;;14.80;99.90;;;;;;5073957;28;20052;-43
2022/07/07 04:43:22;;;;;;;10.82;1.85;;;14.70;99.90;;;;;;5071902;28;20045;-44
2022/07/07 04:45:48;;;;;;;9.18;1.35;;;14.70;99.90;;;;;;5072602;28;20390;-43
2022/07/07 04:48:15;;;;;;;10.20;1.45;;;14.60;99.90;;;;;;5072612;28;20036;-42
2022/07/07 04:50:40;;;;;;;13.18;1.98;;;14.60;99.90;;;;;;5072015;28;20052;-43
2022/07/07 04:53:06;;;;;;;11.68;1.77;;;14.70;66.30;;;;;;5076948;28;20056;-43
2022/07/07 04:55:33;;;;;;;6.45;1.40;;;14.60;81.00;;;;;;5075459;28;20095;-44
2022/07/07 04:57:58;;;;;;;8.68;2.00;;;14.60;49.40;;;;;;5077130;28;20056;-42
2022/07/07 05:00:24;;;;;;;16.65;2.95;;;14.60;35.70;;;;;;5076533;28;20040;-42
2022/07/07 05:02:50;;;;;;;10.55;2.28;;;14.60;32.30;;;;;;5076469;28;20044;-43
2022/07/07 05:05:15;;;;;;;11.73;2.00;;;14.60;51.90;;;;;;5076410;28;20044;-42
2022/07/07 05:07:41;;;;;;;18.45;3.28;;;14.60;23.20;;;;;;5076372;28;20047;-42
2022/07/07 05:10:08;;;;;;;11.60;1.95;;;14.60;21.30;;;;;;5077176;28;20374;-42
2022/07/07 05:12:33;;;;;;;17.67;3.10;;;14.70;1.00;;;;;;5076317;28;20044;-42
2022/07/07 05:15:01;;;;;;;16.02;4.13;;;14.70;1.00;;;;;;5076085;28;20560;-42
2022/07/07 05:17:28;;;;;;;13.52;2.25;;;14.80;1.00;;;;;;5076084;28;20084;-41
2022/07/07 05:19:54;;;;;;;14.98;2.85;;;14.90;1.00;;;;;;5076506;28;20060;-43
2022/07/07 05:22:20;;;;;;;13.38;2.70;;;14.90;1.00;;;;;;5075817;28;20052;-41
2022/07/07 05:24:46;;;;;;;14.20;2.70;;;14.90;1.00;;;;;;5075430;28;20052;-39
2022/07/07 05:27:11;;;;;;;14.73;3.03;;;14.90;1.00;;;;;;5076017;28;20375;-38
2022/07/07 05:29:37;;;;;;;11.93;2.33;;;14.90;1.00;;;;;;5076581;28;20048;-38
2022/07/07 05:32:03;;;;;;;13.30;2.28;;;14.80;1.00;;;;;;5075048;28;20110;-38
2022/07/07 05:34:29;;;;;;;19.35;3.60;;;14.70;83.80;;;;;;5076501;28;20055;-37
2022/07/07 05:36:55;;;;;;;17.40;3.17;;;14.70;99.90;;;;;;5075844;28;20048;-37
2022/07/07 05:39:21;;;;;;;10.73;2.55;;;14.80;99.90;;;;;;5075886;28;20052;-38
2022/07/07 05:41:46;;;;;;;13.02;1.90;;;14.90;99.90;;;;;;5075772;28;20123;-38
2022/07/07 05:44:12;;;;;;;12.05;2.15;;;15.10;99.90;;;;;;5076297;28;20044;-41
2022/07/07 05:46:38;;;;;;;8.25;1.67;;;15.70;1.00;;;;;;5075687;28;20049;-35
2022/07/07 05:49:03;;;;;;;6.80;2.45;;;16.10;99.90;;;;;;5075863;28;20131;-34
2022/07/07 05:51:29;;;;;;;14.25;2.28;;;16.10;29.30;;;;;;5076169;28;20052;-35
2022/07/07 05:53:55;;;;;;;14.18;2.38;;;16.50;2.90;;;;;;5075570;28;20056;-34
2022/07/07 05:56:20;;;;;;;12.25;2.42;;;17.10;1.00;;;;;;5075790;28;20036;-34
2022/07/07 05:58:46;;;;;;;8.88;1.77;;;17.00;99.90;;;;;;5075960;28;20048;-32
2022/07/07 06:01:12;;;;;;;10.73;2.05;;;16.60;99.90;;;;;;5075384;28;20046;-32
2022/07/07 06:03:38;;;;;;;8.10;1.50;;;16.70;99.90;;;;;;5074282;28;20045;-33
2022/07/07 06:06:04;;;;;;;8.68;1.80;;;16.60;99.90;;;;;;5075322;28;20098;-32
2022/07/07 06:08:30;;;;;;;10.43;1.73;;;16.30;99.90;;;;;;5075963;28;20047;-32
2022/07/07 06:10:56;;;;;;;9.05;1.60;;;16.10;1.00;;;;;;5075439;28;20122;-31
2022/07/07 06:13:21;;;;;;;7.22;1.70;;;15.90;1.00;;;;;;5073787;28;20478;-33
2022/07/07 06:15:47;;;;;;;5.75;1.05;;;15.90;99.90;;;;;;5076289;28;20103;-32
2022/07/07 06:18:13;;;;;;;7.13;1.35;;;15.90;99.90;;;;;;5075764;28;20040;-29
2022/07/07 06:20:39;;;;;;;7.63;0.90;;;16.00;99.90;;;;;;5074060;28;20084;-30
2022/07/07 06:23:05;;;;;;;6.72;1.30;;;16.20;99.90;;;;;;5075504;28;20055;-29
2022/07/07 06:25:31;;;;;;;8.13;0.80;;;16.50;99.90;;;;;;5074912;28;20048;-30
2022/07/07 06:27:57;;;;;;;8.50;1.33;;;17.20;99.90;;;;;;5074769;28;20044;-32
2022/07/07 06:30:23;;;;;;;5.82;0.93;;;17.70;1.00;;;;;;5074482;28;20402;-30
2022/07/07 06:32:48;;;;;;;4.93;0.80;;;18.40;99.90;;;;;;5073586;28;20044;-30
2022/07/07 06:35:14;;;;;;;7.95;1.20;;;18.20;87.90;;;;;;5074986;28;20045;-30
2022/07/07 06:37:40;;;;;;;11.20;1.80;;;17.80;1.00;;;;;;5074646;28;20055;-28
2022/07/07 06:40:07;;;;;;;6.75;1.40;;;17.00;99.90;;;;;;5074285;28;20123;-28
2022/07/07 06:42:32;;;;;;;4.85;1.13;;;16.20;99.90;;;;;;5074792;28;20040;-27
2022/07/07 06:45:00;;;;;;;2.50;0.40;;;15.80;60.70;;;;;;5056667;28;20466;-27
2022/07/07 06:47:26;;;;;;;3.97;0.43;;;15.60;99.90;;;;;;5075192;28;20044;-28
2022/07/07 06:49:51;;;;;;;3.60;0.80;;;15.50;1.00;;;;;;5074500;28;20147;-28
2022/07/07 06:52:17;;;;;;;5.85;0.63;;;15.80;33.20;;;;;;5074210;28;20044;-28
2022/07/07 06:54:43;;;;;;;7.95;1.20;;;16.80;92.30;;;;;;5074394;28;20102;-28
2022/07/07 06:57:09;;;;;;;4.13;0.65;;;17.30;99.90;;;;;;5073887;28;20047;-30
2022/07/07 06:59:35;;;;;;;4.22;0.80;;;17.60;1.00;;;;;;5073940;28;20409;-28
2022/07/07 07:02:02;;;;;;;5.20;0.50;;;16.90;1.00;;;;;;5056378;28;20040;-27
2022/07/07 07:04:28;;;;;;;5.03;0.70;;;16.10;44.10;;;;;;5074778;28;20105;-28
2022/07/07 07:06:54;;;;;;;3.85;0.75;;;15.80;1.00;;;;;;5074072;28;20425;-27
2022/07/07 07:09:19;;;;;;;4.75;1.10;;;15.70;1.00;;;;;;5074134;28;20545;-28
2022/07/07 07:11:45;;;;;;;4.95;0.52;;;15.80;1.00;;;;;;5073721;28;20059;-27
2022/07/07 07:14:13;;;;;;;3.83;0.80;;;16.00;1.00;;;;;;5072833;28;20186;-29
2022/07/07 07:16:39;;;;;;;10.32;0.75;;;16.30;1.00;;;;;;5074044;28;20052;-27
2022/07/07 07:19:08;;;;;;;6.43;0.70;;;16.40;1.00;;;;;;5073772;28;20087;-28
2022/07/07 07:21:33;;;;;;;5.13;0.98;;;16.30;1.00;;;;;;5074210;28;20055;-28
2022/07/07 07:23:59;;;;;;;5.88;1.25;;;16.30;1.00;;;;;;5072696;28;20390;-28
2022/07/07 07:26:25;;;;;;;8.10;1.23;;;16.20;1.00;;;;;;5073845;28;20059;-27
2022/07/07 07:28:51;;;;;;;6.30;1.38;;;16.20;1.00;;;;;;5074332;28;20041;-28
2022/07/07 07:31:16;;;;;;;3.95;1.00;;;15.90;99.90;;;;;;5073807;28;20052;-29
2022/07/07 07:33:43;;;;;;;5.88;0.93;;;15.50;1.00;;;;;;5073171;28;20087;-27
2022/07/07 07:36:09;;;;;;;6.65;0.88;;;15.40;99.90;;;;;;5073757;28;20047;-27
2022/07/07 07:38:39;;;;;;;4.53;0.70;;;15.50;99.90;;;;;;5072551;28;20036;-29
2022/07/07 07:41:07;;;;;;;7.00;1.08;;;16.00;99.90;;;;;;5073708;28;20059;-28
2022/07/07 07:43:34;;;;;;;5.20;1.08;;;16.90;99.90;;;;;;5073730;28;20060;-28
2022/07/07 07:45:59;;;;;;;9.60;0.98;;;17.10;99.90;;;;;;5072751;28;20083;-28
2022/07/07 07:48:30;;;;;;;4.25;1.10;;;17.20;1.00;;;;;;5073214;28;20080;-29
2022/07/07 07:50:56;;;;;;;7.68;1.08;;;17.10;1.00;;;;;;5073657;28;20106;-28
2022/07/07 07:53:24;;;;;;;6.80;0.90;;;17.10;1.00;;;;;;5073175;28;20040;-29
2022/07/07 07:55:50;;;;;;;6.18;0.98;;;17.40;91.30;;;;;;5074110;28;20052;-28
2022/07/07 07:58:16;;;;;;;8.35;1.50;;;17.80;1.00;;;;;;5073603;28;20101;-31
2022/07/07 08:00:42;;;;;;;7.78;1.67;;;17.60;99.90;;;;;;5073543;28;20509;-28
2022/07/07 08:03:08;;;;;;;11.18;1.20;;;17.00;1.00;;;;;;5073797;28;20049;-28
2022/07/07 08:05:34;;;;;;;5.93;1.17;;;16.60;1.00;;;;;;5073173;28;20527;-27
2022/07/07 08:07:59;;;;;;;10.05;1.50;;;16.40;47.70;;;;;;5073401;28;20128;-27
2022/07/07 08:10:25;;;;;;;12.05;1.50;;;16.30;99.90;;;;;;5072268;28;20375;-27
2022/07/07 08:12:51;;;;;;;10.20;2.28;;;16.30;99.90;;;;;;5073255;28;20067;-27
2022/07/07 08:15:17;;;;;;;8.15;1.42;;;16.40;1.00;;;;;;5073557;28;20063;-27
2022/07/07 08:17:44;;;;;;;13.13;2.10;;;16.70;1.30;;;;;;5073303;28;20131;-28
2022/07/07 08:20:10;;;;;;;15.40;2.85;;;16.90;1.00;;;;;;5073957;28;20053;-27
2022/07/07 08:22:38;;;;;;;8.05;2.05;;;16.60;99.90;;;;;;5072312;28;20048;-28
2022/07/07 08:25:05;;;;;;;9.65;1.80;;;16.50;1.00;;;;;;5073169;28;20056;-27
2022/07/07 08:27:31;;;;;;;7.97;1.38;;;16.40;99.90;;;;;;5075178;28;20040;-27
2022/07/07 08:30:00;;;;;;;8.95;1.98;;;16.60;99.90;;;;;;5077140;28;20482;-28
2022/07/07 08:32:26;;;;;;;8.48;1.80;;;17.40;99.90;;;;;;5077054;28;20056;-28
2022/07/07 08:34:54;;;;;;;9.40;1.30;;;17.80;99.90;;;;;;5077022;28;20471;-27
2022/07/07 08:37:20;;;;;;;8.40;1.50;;;17.20;1.00;;;;;;5076012;28;20092;-28
2022/07/07 08:39:46;;;;;;;5.55;1.88;;;17.00;99.90;;;;;;5075982;28;20048;-27
2022/07/07 08:42:12;;;;;;;8.25;1.83;;;17.40;99.90;;;;;;5076921;28;20048;-27
2022/07/07 08:44:40;;;;;;;5.47;1.42;;;17.40;99.90;;;;;;5076861;28;20048;-27
2022/07/07 08:47:06;;;;;;;6.97;1.80;;;17.60;99.90;;;;;;5077257;28;20037;-27
2022/07/07 08:49:32;;;;;;;7.13;1.70;;;18.10;1.00;;;;;;5076752;28;20072;-29
2022/07/07 08:51:58;;;;;;;8.25;1.38;;;17.70;99.90;;;;;;5075526;28;20040;-28
2022/07/07 08:54:25;;;;;;;5.93;1.20;;;17.00;1.00;;;;;;5076640;28;20052;-26
2022/07/07 08:56:51;;;;;;;5.32;1.30;;;16.70;99.90;;;;;;5076622;28;20258;-27
2022/07/07 08:59:19;;;;;;;5.18;0.90;;;16.80;1.00;;;;;;5076631;28;20094;-27
2022/07/07 09:01:57;;;;;;;7.15;1.05;;;17.00;1.00;;;;;;5077334;28;20045;-27
2022/07/07 09:04:23;;;;;;;6.07;1.13;;;17.20;99.90;;;;;;5059159;28;20055;-27
2022/07/07 09:07:03;;;;;;;2.45;0.55;;;17.80;99.90;;;;;;5059216;28;20145;-27
2022/07/07 09:09:46;;;;;;;4.93;0.70;;;18.40;1.00;;;;;;5076996;28;20036;-27
2022/07/07 09:12:16;;;;;;;4.75;1.00;;;18.60;99.90;;;;;;5077275;28;20052;-27
2022/07/07 09:14:51;;;;;;;4.55;0.75;;;18.20;68.50;;;;;;5075957;28;20194;-26
2022/07/07 09:17:28;;;;;;;4.45;1.45;;;17.40;1.00;;;;;;5076166;28;20489;-26
2022/07/07 09:20:06;;;;;;;5.70;1.00;;;16.90;99.90;;;;;;5076230;28;20127;-26
2022/07/07 09:22:47;;;;;;;5.30;1.02;;;17.10;1.00;;;;;;5076816;28;20049;-26
2022/07/07 09:25:15;;;;;;;8.25;1.52;;;17.20;1.00;;;;;;5074878;28;20075;-26
2022/07/07 09:27:57;;;;;;;5.43;1.30;;;17.20;1.00;;;;;;5075754;28;20047;-27
2022/07/07 09:30:25;;;;;;;9.18;1.00;;;17.10;99.90;;;;;;5076100;28;20136;-27
2022/07/07 09:32:51;;;;;;;8.77;1.30;;;17.20;99.90;;;;;;5075972;28;20098;-27
2022/07/07 09:38:13;;;;;;;11.43;1.23;;;17.50;99.90;;;;;;5075926;28;20095;-27
2022/07/07 09:38:16;;;;;;;10.70;1.73;;;17.70;99.90;;;;;;5075477;28;20056;-27
2022/07/07 09:41:12;;;;;;;9.05;1.30;;;17.80;99.90;;;;;;5075326;28;20055;-27
2022/07/07 09:43:53;;;;;;;8.30;1.50;;;17.60;1.00;;;;;;5058245;28;20052;-26
2022/07/07 09:46:26;;;;;;;7.05;1.17;;;17.30;1.70;;;;;;5074640;28;20089;-27
2022/07/07 09:48:54;;;;;;;5.03;1.08;;;16.70;99.90;;;;;;5075964;28;20048;-25
2022/07/07 09:51:31;;;;;;;7.05;1.30;;;16.30;99.90;;;;;;5074680;28;20048;-25
2022/07/07 09:54:06;;;;;;;6.45;1.65;;;16.00;1.00;;;;;;5074704;28;20088;-26
2022/07/07 09:56:42;;;;;;;8.63;1.80;;;16.30;99.90;;;;;;5075383;28;20049;-26
2022/07/07 09:59:16;;;;;;;11.73;1.90;;;16.60;99.90;;;;;;5075840;28;20045;-26
2022/07/07 10:01:49;;;;;;;8.50;1.45;;;16.70;99.90;;;;;;5075467;28;20495;-26
2022/07/07 10:04:19;;;;;;;12.25;1.55;;;16.30;1.00;;;;;;5075159;28;20559;-26
2022/07/07 10:06:47;;;;;;;16.95;2.30;;;16.00;91.90;;;;;;5075593;28;20055;-26
2022/07/07 10:09:20;;;;;;;14.60;2.25;;;15.70;99.90;;;;;;5075307;28;20044;-26
2022/07/07 10:11:50;;;;;;;14.52;3.00;;;15.80;99.90;;;;;;5075216;28;20094;-26
2022/07/07 10:14:19;;;;;;;14.23;2.35;;;15.90;1.00;;;;;;5074839;28;20067;-26
2022/07/07 10:16:49;;;;;;;15.10;2.67;;;16.30;99.90;;;;;;5075696;28;20059;-26
2022/07/07 10:19:17;;;;;;;9.27;1.70;;;15.90;99.90;;;;;;5073553;28;20410;-27
2022/07/07 10:21:45;;;;;;;13.18;2.00;;;15.70;99.90;;;;;;5075026;28;20394;-27
2022/07/07 10:24:12;;;;;;;12.55;1.90;;;15.80;99.90;;;;;;5074976;28;20055;-27
2022/07/07 10:26:46;;;;;;;10.68;2.33;;;16.10;99.90;;;;;;5074910;28;20052;-27
2022/07/07 10:29:12;;;;;;;13.82;2.08;;;16.70;99.90;;;;;;5074995;28;20052;-27
2022/07/07 10:31:40;;;;;;;16.77;2.75;;;17.20;99.90;;;;;;5075651;28;20048;-27
2022/07/07 10:34:11;;;;;;;12.30;2.05;;;17.50;99.90;;;;;;5074806;28;20059;-27
2022/07/07 10:36:49;;;;;;;15.35;2.30;;;17.50;99.90;;;;;;5074778;28;20048;-27
2022/07/07 10:39:16;;;;;;;11.90;2.38;;;17.50;1.00;;;;;;5074663;28;20056;-28
2022/07/07 10:42:05;;;;;;;14.40;2.83;;;17.60;99.90;;;;;;5074902;28;20044;-27
2022/07/07 10:44:37;;;;;;;12.40;2.60;;;17.40;99.90;;;;;;5075147;28;20478;-26
2022/07/07 10:47:12;;;;;;;11.68;2.63;;;17.50;1.00;;;;;;5074589;28;20044;-27
2022/07/07 10:49:41;;;;;;;16.58;3.28;;;17.60;27.70;;;;;;5073983;28;20059;-26
2022/07/07 10:52:23;;;;;;;13.63;2.95;;;17.50;1.00;;;;;;5074459;28;20063;-27
2022/07/07 10:54:51;;;;;;;18.33;3.55;;;17.20;1.00;;;;;;5075029;28;20063;-27
2022/07/07 10:57:20;;;;;;;17.55;3.38;;;17.10;1.00;;;;;;5074316;28;20047;-27
2022/07/07 11:00:03;;;;;;;18.35;2.97;;;16.60;99.90;;;;;;5074250;28;20049;-27
2022/07/07 11:02:30;;;;;;;19.20;3.25;;;16.30;99.90;;;;;;5074323;28;20127;-27
2022/07/07 11:04:57;;;;;;;19.15;2.95;;;16.40;1.00;;;;;;5074206;28;20481;-27
2022/07/07 11:07:25;;;;;;;14.02;2.45;;;16.50;99.90;;;;;;5074688;28;20045;-27
2022/07/07 11:10:09;;;;;;;19.15;3.22;;;16.70;1.00;;;;;;5074129;28;20048;-26
2022/07/07 11:12:48;;;;;;;15.82;2.78;;;17.00;1.00;;;;;;5074376;28;20360;-27
2022/07/07 11:15:14;;;;;;;14.05;3.05;;;17.30;1.00;;;;;;5074182;28;20477;-26
2022/07/07 11:17:45;;;;;;;17.55;2.47;;;17.30;99.90;;;;;;5073892;28;20055;-27
2022/07/07 11:20:19;;;;;;;12.20;2.20;;;17.40;99.90;;;;;;5074328;28;20052;-26
2022/07/07 11:22:52;;;;;;;10.40;2.47;;;17.40;99.90;;;;;;5073959;28;20135;-28
2022/07/07 11:25:21;;;;;;;12.43;2.92;;;17.30;68.10;;;;;;5073976;28;20098;-26
2022/07/07 11:27:49;;;;;;;11.55;2.10;;;17.40;99.90;;;;;;5073845;28;20051;-27
2022/07/07 11:30:16;;;;;;;13.90;2.50;;;17.60;1.00;;;;;;5073901;28;20513;-26
2022/07/07 11:32:43;;;;;;;12.00;1.83;;;17.90;99.90;;;;;;5072652;28;20057;-27
2022/07/07 11:35:13;;;;;;;11.50;2.03;;;18.00;99.90;;;;;;5074330;28;20044;-27
2022/07/07 11:37:41;;;;;;;12.38;2.67;;;18.10;99.90;;;;;;5074013;28;20040;-27
2022/07/07 11:40:25;;;;;;;11.38;2.33;;;18.20;99.90;;;;;;5074265;28;20367;-27
2022/07/07 11:42:52;;;;;;;16.15;2.30;;;18.10;99.90;;;;;;5074066;28;20189;-26
2022/07/07 11:45:21;;;;;;;14.75;2.97;;;18.20;1.00;;;;;;5073684;28;20121;-26
2022/07/07 11:47:48;;;;;;;13.88;2.50;;;18.20;99.90;;;;;;5073583;28;20051;-27
2022/07/07 11:50:14;;;;;;;15.30;2.72;;;18.00;1.00;;;;;;5073633;28;20052;-28
2022/07/07 11:52:52;;;;;;;16.55;2.67;;;17.90;99.90;;;;;;5073914;28;20424;-27
2022/07/07 11:55:19;;;;;;;11.05;2.17;;;17.70;99.90;;;;;;5072929;28;20052;-27
2022/07/07 11:57:53;;;;;;;19.20;2.90;;;17.80;1.00;;;;;;5073419;28;20044;-26
2022/07/07 12:00:25;;;;;;;15.73;2.20;;;17.80;1.00;;;;;;5073238;28;20509;-27
2022/07/07 12:02:52;;;;;;;17.90;2.92;;;17.70;26.30;;;;;;5078030;28;20109;-27
2022/07/07 12:05:26;;;;;;;11.25;2.20;;;17.40;1.00;;;;;;5076723;28;20056;-27
2022/07/07 12:07:54;;;;;;;15.57;3.25;;;17.00;99.90;;;;;;5078129;28;20040;-28
2022/07/07 12:10:24;;;;;;;14.65;3.33;;;16.60;99.90;;;;;;5077783;28;20127;-27
2022/07/07 12:13:05;;;;;;;14.20;2.50;;;16.70;1.00;;;;;;5077525;28;20044;-27
2022/07/07 12:15:50;;;;;;;12.05;2.53;;;17.00;1.00;;;;;;5076309;28;20052;-27
2022/07/07 12:18:24;;;;;;;13.95;3.05;;;17.10;1.00;;;;;;5077358;28;20063;-26
2022/07/07 12:21:03;;;;;;;10.88;2.15;;;17.20;99.90;;;;;;5077932;28;20051;-28
2022/07/07 12:23:29;;;;;;;8.45;1.75;;;17.10;99.90;;;;;;5077364;28;20055;-27
2022/07/07 12:26:08;;;;;;;13.65;2.30;;;17.30;47.00;;;;;;5077270;28;20048;-27
2022/07/07 12:28:37;;;;;;;9.68;1.77;;;17.70;99.90;;;;;;5077675;28;20040;-28
2022/07/07 12:31:04;;;;;;;11.65;2.63;;;18.20;99.90;;;;;;5077229;28;20478;-27
2022/07/07 12:33:40;;;;;;;12.13;2.17;;;18.20;68.90;;;;;;5076556;28;20493;-27
2022/07/07 12:36:24;;;;;;;11.63;2.10;;;18.50;1.00;;;;;;5077549;28;20390;-27
2022/07/07 12:38:56;;;;;;;14.65;1.92;;;18.30;99.90;;;;;;5077860;28;20048;-27
2022/07/07 12:41:26;;;;;;;12.45;2.38;;;17.90;1.00;;;;;;5076932;28;20055;-27
2022/07/07 12:44:06;;;;;;;8.90;2.08;;;17.40;94.30;;;;;;5077694;28;20094;-27
2022/07/07 12:46:35;;;;;;;18.17;2.78;;;17.10;99.90;;;;;;5077474;28;20175;-27
2022/07/07 12:49:03;;;;;;;14.13;2.30;;;16.90;1.00;;;;;;5076766;28;20102;-27